Time;durP1;ratioP1;P1;durP2;ratioP2;P2;SDS_P1;SDS_P2;PMS_P1;PMS_P2;Temp;Humidity;BMP_temperature;BMP_pressure;BME280_temperature;BME280_humidity;BME280_pressure;Samples;Min_cycle;Max_cycle;Signal;HPM_P1;HPM_P2
2021/08/10 00:01:13;;;;;;;53.48;44.70;;;;;;;24.57;100.00;100561.53;1705190;83;21746;-85
2021/08/10 00:03:40;;;;;;;48.75;44.00;;;;;;;24.53;100.00;100558.47;1705169;83;21441;-87
2021/08/10 00:06:07;;;;;;;47.70;43.15;;;;;;;24.49;100.00;100555.91;1711375;83;21232;-83
2021/08/10 00:08:34;;;;;;;47.08;42.30;;;;;;;24.52;100.00;100558.66;1708018;82;21045;-85
2021/08/10 00:11:01;;;;;;;48.08;43.38;;;;;;;24.53;100.00;100553.14;1703759;83;21120;-86
2021/08/10 00:13:29;;;;;;;65.37;44.48;;;;;;;24.56;100.00;100548.72;1707329;82;21014;-84
2021/08/10 00:15:56;;;;;;;52.60;44.55;;;;;;;24.65;100.00;100549.81;1711631;83;20958;-87
2021/08/10 00:18:25;;;;;;;51.08;43.85;;;;;;;24.76;100.00;100546.54;1706197;83;21065;-85
2021/08/10 00:20:52;;;;;;;50.33;45.30;;;;;;;24.85;100.00;100552.42;1700951;82;21087;-83
2021/08/10 00:23:19;;;;;;;49.13;44.18;;;;;;;24.95;100.00;100552.00;1710210;82;22313;-86
2021/08/10 00:25:49;;;;;;;50.43;45.05;;;;;;;25.00;100.00;100546.84;1706819;83;21126;-86
2021/08/10 00:28:17;;;;;;;52.15;45.55;;;;;;;25.04;100.00;100543.53;1705655;83;21579;-86
2021/08/10 00:30:45;;;;;;;48.38;43.52;;;;;;;25.06;100.00;100547.84;1711756;82;21057;-86
2021/08/10 00:33:14;;;;;;;48.80;44.00;;;;;;;25.04;100.00;100545.37;1707824;82;21081;-86
2021/08/10 00:35:41;;;;;;;48.42;43.75;;;;;;;25.01;100.00;100551.94;1706526;83;21154;-84
2021/08/10 00:38:09;;;;;;;53.65;44.73;;;;;;;25.03;100.00;100549.09;1707534;83;21222;-83
2021/08/10 00:40:38;;;;;;;53.05;44.42;;;;;;;25.04;100.00;100551.53;1707426;82;20957;-86
2021/08/10 00:43:33;;;;;;;49.83;44.55;;;;;;;25.06;100.00;100547.31;1712126;83;21460;-86
2021/08/10 00:46:05;;;;;;;50.75;45.55;;;;;;;25.07;100.00;100547.62;1694974;82;21619;-84
2021/08/10 00:48:33;;;;;;;52.55;47.23;;;;;;;25.11;100.00;100555.50;1696430;83;21393;-87
2021/08/10 00:51:07;;;;;;;57.33;51.40;;;;;;;25.06;100.00;100547.84;1674204;84;21075;-86
2021/08/10 00:53:38;;;;;;;62.35;56.05;;;;;;;24.94;100.00;100555.69;1694129;83;21049;-86
2021/08/10 00:56:07;;;;;;;69.07;61.90;;;;;;;24.78;100.00;100545.82;1710122;83;21623;-85
2021/08/10 00:58:37;;;;;;;79.47;69.95;;;;;;;24.65;100.00;100547.98;1712046;83;21512;-86
2021/08/10 01:01:04;;;;;;;82.82;70.83;;;;;;;24.53;100.00;100541.66;1708289;83;21571;-86
2021/08/10 01:03:33;;;;;;;83.82;74.25;;;;;;;24.49;100.00;100545.27;1708638;83;21775;-85
2021/08/10 01:06:10;;;;;;;82.95;74.32;;;;;;;24.50;100.00;100537.59;1680259;83;21086;-87
2021/08/10 01:09:05;;;;;;;85.55;76.28;;;;;;;24.52;100.00;100538.20;1701562;83;21068;-88
2021/08/10 01:11:47;;;;;;;82.50;74.17;;;;;;;24.53;100.00;100538.51;1702632;82;21026;-85
2021/08/10 01:14:44;;;;;;;84.52;75.80;;;;;;;24.51;100.00;100536.56;1708543;83;21013;-86
2021/08/10 01:17:26;;;;;;;85.55;77.03;;;;;;;24.45;100.00;100535.24;1706355;83;21157;-85
2021/08/10 01:20:14;;;;;;;86.78;77.85;;;;;;;24.40;100.00;100534.53;1710023;83;21643;-87
2021/08/10 01:22:47;;;;;;;89.35;80.22;;;;;;;24.41;100.00;100540.16;1677068;83;21070;-85
2021/08/10 01:25:41;;;;;;;91.00;81.80;;;;;;;24.38;100.00;100541.93;1705293;83;21505;-85
2021/08/10 01:28:33;;;;;;;90.75;81.25;;;;;;;24.30;100.00;100536.84;1704808;83;21072;-85
2021/08/10 01:31:18;;;;;;;91.50;82.20;;;;;;;24.15;100.00;100539.22;1712317;83;21992;-82
2021/08/10 01:33:51;;;;;;;91.78;81.75;;;;;;;24.10;100.00;100539.01;1689598;82;21280;-85
2021/08/10 01:36:20;;;;;;;88.87;79.53;;;;;;;24.08;100.00;100534.41;1710914;83;21049;-86
2021/08/10 01:38:54;;;;;;;88.17;79.07;;;;;;;24.06;100.00;100533.81;1708824;83;21070;-86
2021/08/10 01:41:23;;;;;;;91.28;81.25;;;;;;;24.07;100.00;100534.12;1708123;83;21511;-85
2021/08/10 01:43:55;;;;;;;90.50;81.37;;;;;;;24.12;100.00;100538.83;1679656;83;21117;-86
2021/08/10 01:46:25;;;;;;;93.33;83.57;;;;;;;24.24;100.00;100531.83;1707319;82;21081;-84
2021/08/10 01:48:56;;;;;;;90.17;80.97;;;;;;;24.33;100.00;100523.09;1706134;83;21073;-87
2021/08/10 01:51:27;;;;;;;92.10;81.95;;;;;;;24.32;100.00;100526.28;1695506;83;21160;-87
2021/08/10 01:54:02;;;;;;;88.10;78.75;;;;;;;24.23;100.00;100523.54;1694340;83;21066;-86
2021/08/10 01:56:32;;;;;;;83.65;74.95;;;;;;;24.13;100.00;100533.28;1697618;83;21886;-85
2021/08/10 01:59:02;;;;;;;81.53;73.22;;;;;;;24.11;100.00;100530.01;1711545;83;20965;-86
2021/08/10 02:01:32;;;;;;;81.63;73.35;;;;;;;24.07;100.00;100532.80;1697370;83;21616;-86
2021/08/10 02:04:00;;;;;;;80.95;72.50;;;;;;;24.03;100.00;100534.21;1670594;85;21128;-86
2021/08/10 02:06:29;;;;;;;79.35;71.65;;;;;;;24.03;100.00;100535.55;1707999;83;21536;-87
2021/08/10 02:09:01;;;;;;;80.38;71.87;;;;;;;24.08;100.00;100531.24;1704483;83;21540;-87
2021/08/10 02:11:30;;;;;;;79.67;71.75;;;;;;;24.16;100.00;100520.08;1676748;84;21052;-85
2021/08/10 02:14:01;;;;;;;78.10;70.20;;;;;;;24.21;100.00;100523.76;1663454;85;21116;-85
2021/08/10 02:16:32;;;;;;;78.95;70.62;;;;;;;24.29;100.00;100523.23;1665802;85;21013;-88
2021/08/10 02:19:00;;;;;;;77.03;68.65;;;;;;;24.31;100.00;100521.98;1655284;85;21056;-86
2021/08/10 02:21:50;;;;;;;73.47;65.85;;;;;;;24.28;100.00;100520.26;1658539;84;21776;-87
2021/08/10 02:24:29;;;;;;;74.32;66.95;;;;;;;24.28;100.00;100516.27;1679866;84;21134;-83
2021/08/10 02:27:08;;;;;;;74.32;66.90;;;;;;;24.22;100.00;100517.41;1656116;85;21023;-87
2021/08/10 02:29:42;;;;;;;73.35;65.83;;;;;;;24.13;100.00;100515.16;1671661;84;21091;-85
2021/08/10 02:32:14;;;;;;;71.80;64.55;;;;;;;24.06;100.00;100511.20;1659700;85;21104;-87
2021/08/10 02:34:43;;;;;;;72.17;64.90;;;;;;;24.03;100.00;100518.26;1664348;83;21105;-86
2021/08/10 02:37:14;;;;;;;71.95;64.12;;;;;;;24.05;100.00;100513.56;1707473;83;21077;-87
2021/08/10 02:39:47;;;;;;;76.25;67.62;;;;;;;24.03;100.00;100520.42;1706427;83;20946;-86
2021/08/10 02:42:18;;;;;;;78.05;70.10;;;;;;;24.10;100.00;100515.91;1708035;83;21023;-85
2021/08/10 02:44:48;;;;;;;76.67;69.07;;;;;;;24.17;100.00;100523.85;1708211;83;21151;-87
2021/08/10 02:47:19;;;;;;;74.60;66.92;;;;;;;24.25;100.00;100529.48;1707263;83;21147;-87
2021/08/10 02:49:46;;;;;;;77.95;69.65;;;;;;;24.22;100.00;100525.39;1708281;83;21006;-85
2021/08/10 02:52:13;;;;;;;74.07;67.08;;;;;;;24.22;100.00;100525.39;1689165;83;21026;-85
2021/08/10 02:54:41;;;;;;;73.02;65.78;;;;;;;24.23;100.00;100520.38;1670412;83;20986;-87
2021/08/10 02:57:17;;;;;;;72.62;65.20;;;;;;;24.24;100.00;100521.19;1647608;84;21661;-84
2021/08/10 03:00:14;;;;;;;76.50;68.35;;;;;;;24.20;100.00;100522.12;1631025;86;22134;-85
2021/08/10 03:02:50;;;;;;;75.65;67.90;;;;;;;24.19;100.00;100525.80;1644886;85;21079;-87
2021/08/10 03:05:26;;;;;;;76.40;68.55;;;;;;;24.17;100.00;100521.72;1654904;85;21558;-87
2021/08/10 03:07:56;;;;;;;175.87;117.60;;;;;;;24.17;100.00;100527.04;1627970;86;21063;-87
2021/08/10 03:10:29;;;;;;;152.70;110.70;;;;;;;24.14;100.00;100528.28;1683138;83;21531;-86
2021/08/10 03:13:02;;;;;;;79.75;71.28;;;;;;;24.24;100.00;100527.84;1683666;84;21044;-86
2021/08/10 03:15:33;;;;;;;78.15;69.97;;;;;;;24.29;100.00;100529.88;1690359;84;21108;-85
2021/08/10 03:18:07;;;;;;;86.45;74.07;;;;;;;24.24;100.00;100537.15;1686687;84;21092;-86
2021/08/10 03:20:38;;;;;;;79.50;71.20;;;;;;;24.26;100.00;100537.77;1673691;83;21084;-86
2021/08/10 03:23:07;;;;;;;77.78;69.58;;;;;;;24.34;100.00;100540.20;1690537;83;21060;-86
2021/08/10 03:25:35;;;;;;;79.58;71.20;;;;;;;24.36;100.00;100541.31;1694017;84;22011;-87
2021/08/10 03:28:04;;;;;;;75.70;67.67;;;;;;;24.32;100.00;100545.41;1698741;83;21018;-88
2021/08/10 03:30:32;;;;;;;77.08;69.30;;;;;;;24.25;100.00;100548.09;1694769;83;21014;-88
2021/08/10 03:32:59;;;;;;;79.90;71.90;;;;;;;24.20;100.00;100543.40;1669534;83;21129;-86
2021/08/10 03:35:28;;;;;;;81.60;73.30;;;;;;;24.20;100.00;100534.58;1675553;84;21510;-88
2021/08/10 03:37:57;;;;;;;79.73;72.13;;;;;;;24.17;100.00;100534.48;1686839;83;21751;-88
2021/08/10 03:40:24;;;;;;;84.50;76.10;;;;;;;24.12;100.00;100530.84;1678877;84;21039;-84
2021/08/10 03:42:53;;;;;;;87.70;78.92;;;;;;;24.04;100.00;100533.19;1668578;85;21996;-87
2021/08/10 03:45:24;;;;;;;80.75;72.65;;;;;;;23.87;100.00;100526.94;1678327;84;21122;-86
2021/08/10 03:47:54;;;;;;;84.17;75.87;;;;;;;23.73;100.00;100532.77;1697031;83;21445;-86
2021/08/10 03:50:22;;;;;;;84.00;75.47;;;;;;;23.70;100.00;100532.36;1660132;83;21177;-86
2021/08/10 03:52:51;;;;;;;80.87;72.30;;;;;;;23.69;100.00;100534.70;1698127;83;21078;-85
2021/08/10 03:55:22;;;;;;;82.85;74.20;;;;;;;23.71;100.00;100536.66;1695491;83;21110;-87
2021/08/10 03:57:51;;;;;;;78.78;70.55;;;;;;;23.73;100.00;100539.94;1663928;83;21150;-88
2021/08/10 04:00:19;;;;;;;76.57;69.07;;;;;;;23.73;100.00;100538.61;1662874;83;21035;-88
2021/08/10 04:02:48;;;;;;;76.53;69.00;;;;;;;23.73;100.00;100536.75;1690375;83;21254;-84
2021/08/10 04:05:17;;;;;;;75.42;67.80;;;;;;;23.76;100.00;100543.49;1706693;83;21087;-87
2021/08/10 04:07:46;;;;;;;74.77;66.20;;;;;;;23.80;100.00;100547.39;1685094;83;21047;-87
2021/08/10 04:10:15;;;;;;;75.52;67.92;;;;;;;23.83;100.00;100547.00;1679360;84;21152;-87
2021/08/10 04:12:44;;;;;;;74.03;66.53;;;;;;;23.87;100.00;100542.89;1596242;87;21103;-88
2021/08/10 04:15:14;;;;;;;74.65;67.20;;;;;;;23.89;100.00;100535.53;1674994;84;21863;-88
2021/08/10 04:17:42;;;;;;;72.32;65.08;;;;;;;23.92;100.00;100537.77;1647252;85;21056;-86
2021/08/10 04:20:10;;;;;;;67.03;60.50;;;;;;;23.96;100.00;100537.39;1686395;83;21097;-88
2021/08/10 04:22:41;;;;;;;68.33;61.65;;;;;;;23.97;100.00;100535.05;1680520;83;21145;-87
2021/08/10 04:25:11;;;;;;;62.25;56.00;;;;;;;24.00;100.00;100537.27;1700638;83;21375;-88
2021/08/10 04:27:38;;;;;;;59.53;53.90;;;;;;;24.02;100.00;100529.91;1673304;83;21154;-89
2021/08/10 04:30:06;;;;;;;59.93;53.60;;;;;;;24.03;100.00;100528.40;1687160;83;21406;-86
2021/08/10 04:32:33;;;;;;;59.20;53.35;;;;;;;24.07;100.00;100532.80;1700589;83;21078;-88
2021/08/10 04:35:02;;;;;;;59.40;53.15;;;;;;;24.13;100.00;100525.30;1700443;82;21011;-89
2021/08/10 04:37:29;;;;;;;58.92;53.05;;;;;;;24.15;100.00;100521.10;1698032;83;21105;-88
2021/08/10 04:39:57;;;;;;;58.63;52.33;;;;;;;24.15;100.00;100520.61;1611361;87;21840;-88
2021/08/10 04:42:27;;;;;;;57.05;51.20;;;;;;;24.17;100.00;100516.40;1648150;86;21114;-86
2021/08/10 04:44:55;;;;;;;56.98;51.08;;;;;;;24.18;100.00;100511.39;1645172;85;21086;-90
2021/08/10 04:47:22;;;;;;;54.10;48.48;;;;;;;24.19;100.00;100513.83;1618886;86;21012;-86
2021/08/10 04:49:50;;;;;;;55.75;47.85;;;;;;;24.21;100.00;100513.61;1639716;86;21058;-87
2021/08/10 04:52:17;;;;;;;55.12;47.55;;;;;;;24.26;100.00;100514.63;1632617;87;21116;-89
2021/08/10 04:54:44;;;;;;;55.78;49.50;;;;;;;24.34;100.00;100509.61;1626005;87;21067;-87
2021/08/10 04:57:15;;;;;;;48.43;43.50;;;;;;;24.39;100.00;100495.67;1674871;84;21541;-88
2021/08/10 04:59:43;;;;;;;48.87;43.00;;;;;;;24.39;100.00;100495.67;1677170;85;21257;-85
2021/08/10 05:02:09;;;;;;;44.73;40.30;;;;;;;24.46;100.00;100495.14;1678012;85;21099;-90
2021/08/10 05:04:36;;;;;;;44.83;40.20;;;;;;;24.52;100.00;100488.97;1677276;84;21038;-88
2021/08/10 05:07:04;;;;;;;45.92;40.23;;;;;;;24.55;100.00;100490.38;1676761;84;21076;-89
2021/08/10 05:09:34;;;;;;;44.38;39.85;;;;;;;24.58;100.00;100492.63;1674196;85;21498;-89
2021/08/10 05:12:04;;;;;;;48.42;39.78;;;;;;;24.61;100.00;100479.41;1708542;82;21046;-88
2021/08/10 05:14:32;;;;;;;45.60;40.88;;;;;;;24.65;100.00;100482.77;1702655;83;21072;-89
2021/08/10 05:16:59;;;;;;;47.65;42.53;;;;;;;24.67;100.00;100485.24;1676919;83;22227;-87
2021/08/10 05:19:28;;;;;;;47.78;40.50;;;;;;;24.69;100.00;100485.86;1650992;84;21670;-88
2021/08/10 05:21:56;;;;;;;48.87;40.85;;;;;;;24.71;100.00;100486.47;1689256;83;21554;-84
2021/08/10 05:24:23;;;;;;;43.00;38.60;;;;;;;24.76;100.00;100487.97;1709839;82;21001;-87
2021/08/10 05:26:51;;;;;;;44.15;39.38;;;;;;;24.80;100.00;100487.83;1691511;83;21038;-85
2021/08/10 05:29:18;;;;;;;43.28;38.67;;;;;;;24.79;100.00;100488.05;1667229;83;21525;-86
2021/08/10 05:31:46;;;;;;;46.13;38.17;;;;;;;24.79;100.00;100489.38;1693394;83;21034;-88
2021/08/10 05:34:13;;;;;;;45.78;38.05;;;;;;;24.77;100.00;100494.93;1689089;82;21059;-86
2021/08/10 05:36:40;;;;;;;46.45;39.30;;;;;;;24.73;100.00;100488.37;1668366;85;21031;-90
2021/08/10 05:39:07;;;;;;;41.88;37.67;;;;;;;24.69;100.00;100483.19;1693614;83;21087;-84
2021/08/10 05:41:34;;;;;;;43.42;38.78;;;;;;;24.67;100.00;100486.58;1700031;83;21815;-89
2021/08/10 05:44:01;;;;;;;45.33;40.55;;;;;;;24.68;100.00;100486.88;1685453;83;21602;-87
2021/08/10 05:46:28;;;;;;;43.25;38.70;;;;;;;24.71;100.00;100491.80;1693184;82;21021;-86
2021/08/10 05:48:58;;;;;;;44.63;40.05;;;;;;;24.78;100.00;100505.05;1690579;83;21001;-86
2021/08/10 05:51:26;;;;;;;46.00;41.02;;;;;;;24.84;100.00;100506.86;1684737;82;21136;-87
2021/08/10 05:53:54;;;;;;;42.03;37.73;;;;;;;24.90;100.00;100502.03;1713957;82;21180;-86
2021/08/10 05:56:21;;;;;;;52.53;43.68;;;;;;;24.99;100.00;100505.25;1707399;82;20975;-88
2021/08/10 05:58:50;;;;;;;46.92;41.23;;;;;;;25.03;100.00;100504.61;1709595;83;21049;-88
2021/08/10 06:01:17;;;;;;;46.75;40.20;;;;;;;25.11;100.00;100503.55;1709357;82;21094;-88
2021/08/10 06:03:44;;;;;;;47.48;40.08;;;;;;;25.23;100.00;100501.52;1689244;83;21066;-88
2021/08/10 06:06:13;;;;;;;45.45;40.17;;;;;;;25.38;100.00;100497.22;1708031;82;21213;-85
2021/08/10 06:08:44;;;;;;;46.75;41.80;;;;;;;25.54;100.00;100497.22;1686101;83;21186;-90
2021/08/10 06:11:13;;;;;;;46.45;41.73;;;;;;;25.70;100.00;100499.86;1686729;83;21039;-87
2021/08/10 06:13:42;;;;;;;48.42;41.00;;;;;;;25.82;100.00;100496.27;1693673;83;21069;-90
2021/08/10 06:16:09;;;;;;;40.55;36.53;;;;;;;25.94;100.00;100486.19;1691640;82;21045;-85
2021/08/10 06:18:37;;;;;;;45.63;39.00;;;;;;;26.04;100.00;100493.70;1690983;83;21784;-88
2021/08/10 06:21:06;;;;;;;36.45;32.67;;;;;;;26.14;100.00;100488.67;1696130;82;21113;-90
2021/08/10 06:23:33;;;;;;;43.28;34.33;;;;;;;26.22;100.00;100484.37;1675714;83;21955;-88
2021/08/10 06:26:00;;;;;;;38.50;34.33;;;;;;;26.37;100.00;100487.19;1695304;83;21085;-87
2021/08/10 06:28:29;;;;;;;36.48;32.58;;;;;;;26.50;100.00;100483.04;1673479;83;21121;-89
2021/08/10 06:30:58;;;;;;;38.00;30.62;;;;;;;26.64;100.00;100486.33;1643575;84;21168;-90
2021/08/10 06:33:29;;;;;;;32.03;28.65;;;;;;;26.74;100.00;100473.80;1657498;85;21473;-91
2021/08/10 06:36:05;;;;;;;37.90;29.07;;;;;;;26.84;100.00;100483.95;1664508;85;21041;-88
2021/08/10 06:38:28;;;;;;;33.85;27.87;;;;;;;26.88;100.00;100479.27;1636579;84;21032;-90
2021/08/10 06:40:58;;;;;;;29.82;26.87;;;;;;;26.95;100.00;100486.37;1681575;83;21067;-88
2021/08/10 06:43:25;;;;;;;35.30;27.35;;;;;;;27.02;100.00;100489.75;1675337;83;21504;-90
2021/08/10 06:45:55;;;;;;;30.10;27.00;;;;;;;27.10;100.00;100495.31;1688431;83;21057;-87
2021/08/10 06:48:23;;;;;;;33.33;25.75;;;;;;;27.12;100.00;100498.58;1678758;83;21096;-89
2021/08/10 06:50:50;;;;;;;30.48;25.35;;;;;;;27.12;100.00;100499.38;1657605;84;21110;-87
2021/08/10 06:53:20;;;;;;;31.25;27.95;;;;;;;27.12;100.00;100503.39;1653452;83;21055;-88
2021/08/10 06:55:57;;;;;;;29.45;26.20;;;;;;;27.13;100.00;100498.84;1690238;82;21719;-88
2021/08/10 06:58:16;;;;;;;28.70;25.72;;;;;;;27.14;100.00;100493.80;1673409;83;21509;-89
2021/08/10 07:00:44;;;;;;;27.50;24.63;;;;;;;27.15;100.00;100498.10;1666156;83;21282;-89
2021/08/10 07:03:14;;;;;;;30.68;24.25;;;;;;;27.14;100.00;100501.30;1660662;84;21079;-90
2021/08/10 07:05:49;;;;;;;28.10;25.40;;;;;;;27.07;100.00;100509.41;1673068;84;21515;-89
2021/08/10 07:08:12;;;;;;;28.62;25.60;;;;;;;27.03;100.00;100514.09;1665047;84;21036;-89
2021/08/10 07:10:40;;;;;;;29.45;26.37;;;;;;;27.02;100.00;100505.78;1660776;85;21068;-86
2021/08/10 07:13:08;;;;;;;30.10;27.10;;;;;;;27.02;100.00;100509.29;1664853;83;21544;-89
2021/08/10 07:15:37;;;;;;;31.97;28.62;;;;;;;27.00;100.00;100512.70;1675480;82;21101;-87
2021/08/10 07:18:09;;;;;;;31.33;28.32;;;;;;;26.95;100.00;100511.75;1606767;85;21613;-86
2021/08/10 07:20:37;;;;;;;29.60;26.95;;;;;;;26.98;100.00;100518.78;1679852;83;21057;-87
2021/08/10 07:23:07;;;;;;;29.32;26.25;;;;;;;27.00;100.00;100512.70;1659531;84;21725;-89
2021/08/10 07:25:35;;;;;;;28.42;25.72;;;;;;;27.04;100.00;100516.53;1667080;84;21577;-89
2021/08/10 07:28:03;;;;;;;30.88;27.30;;;;;;;27.12;100.00;100519.41;1670314;84;21114;-88
2021/08/10 07:30:32;;;;;;;28.73;25.97;;;;;;;27.17;100.00;100522.21;1646632;84;21120;-86
2021/08/10 07:32:59;;;;;;;28.77;26.07;;;;;;;27.22;100.00;100521.02;1628014;85;22245;-89
2021/08/10 07:35:27;;;;;;;28.23;25.65;;;;;;;27.26;100.00;100521.38;1656277;85;21537;-85
2021/08/10 07:37:56;;;;;;;29.57;26.05;;;;;;;27.27;100.00;100520.84;1674086;85;21364;-89
2021/08/10 07:40:24;;;;;;;30.72;26.95;;;;;;;27.28;100.00;100517.94;1667133;84;21546;-87
2021/08/10 07:42:52;;;;;;;28.32;25.43;;;;;;;27.32;100.00;100519.12;1657201;85;21192;-86
2021/08/10 07:45:20;;;;;;;27.30;24.63;;;;;;;27.37;100.00;100517.09;1654834;84;21209;-88
2021/08/10 07:47:47;;;;;;;26.05;23.55;;;;;;;27.42;100.00;100512.40;1675995;83;21671;-89
2021/08/10 07:50:16;;;;;;;26.50;22.37;;;;;;;27.47;100.00;100508.53;1658004;84;21499;-89
2021/08/10 07:52:43;;;;;;;26.42;23.85;;;;;;;27.52;100.00;100504.66;1654132;83;20980;-89
2021/08/10 07:55:10;;;;;;;26.00;23.32;;;;;;;27.58;100.00;100513.09;1655124;85;21123;-88
2021/08/10 07:57:41;;;;;;;24.02;21.52;;;;;;;27.60;100.00;100506.17;1647788;84;21123;-87
2021/08/10 08:00:10;;;;;;;23.95;21.48;;;;;;;27.63;100.00;100507.85;1664920;84;21051;-88
2021/08/10 08:02:39;;;;;;;26.02;22.45;;;;;;;27.66;100.00;100508.73;1649055;84;21067;-90
2021/08/10 08:05:07;;;;;;;23.07;20.62;;;;;;;27.70;100.00;100502.41;1625626;84;21546;-88
2021/08/10 08:07:36;;;;;;;20.30;18.23;;;;;;;27.69;100.00;100500.77;1619671;87;21005;-89
2021/08/10 08:10:04;;;;;;;22.37;20.00;;;;;;;27.70;100.00;100494.37;1623843;86;21088;-88
2021/08/10 08:12:33;;;;;;;20.95;18.50;;;;;;;27.71;100.00;100490.66;1667203;84;21570;-89
2021/08/10 08:15:00;;;;;;;20.82;17.70;;;;;;;27.71;100.00;100492.80;1646787;85;21081;-86
2021/08/10 08:17:27;;;;;;;22.95;18.27;;;;;;;27.74;100.00;100481.35;1663852;84;21023;-87
2021/08/10 08:19:54;;;;;;;18.37;16.45;;;;;;;27.80;100.00;100485.77;1670941;84;21777;-89
2021/08/10 08:22:21;;;;;;;19.75;17.30;;;;;;;27.84;100.00;100482.92;1627511;86;21092;-89
2021/08/10 08:24:48;;;;;;;21.55;17.57;;;;;;;27.91;100.00;100484.95;1637358;86;21114;-86
2021/08/10 08:27:16;;;;;;;24.18;17.48;;;;;;;27.97;100.00;100481.84;1622892;86;21610;-84
2021/08/10 08:29:44;;;;;;;19.32;16.80;;;;;;;28.04;100.00;100481.22;1660217;85;21586;-90
2021/08/10 08:32:11;;;;;;;18.52;15.70;;;;;;;28.10;100.00;100478.96;1669439;84;20979;-89
2021/08/10 08:34:39;;;;;;;21.73;16.65;;;;;;;28.18;100.00;100470.57;1660474;85;22110;-87
2021/08/10 08:37:07;;;;;;;17.23;15.38;;;;;;;28.29;100.00;100473.43;1652920;85;21002;-88
2021/08/10 08:39:34;;;;;;;20.27;15.88;;;;;;;28.37;100.00;100468.24;1625201;86;21035;-87
2021/08/10 08:42:02;;;;;;;18.55;15.58;;;;;;;28.44;100.00;100472.39;1668433;83;21050;-88
2021/08/10 08:44:36;;;;;;;19.62;15.72;;;;;;;28.49;100.00;100468.49;1683694;83;21081;-90
2021/08/10 08:47:07;;;;;;;18.85;14.60;;;;;;;28.54;100.00;100469.12;1700283;83;21035;-86
2021/08/10 08:49:38;;;;;;;16.17;14.47;;;;;;;28.61;100.00;100468.45;1651287;83;21029;-87
2021/08/10 08:52:13;;;;;;;16.12;14.60;;;;;;;28.70;100.00;100470.77;1643349;85;21095;-90
2021/08/10 08:54:41;;;;;;;17.23;14.73;;;;;;;28.77;100.00;100473.58;1634148;85;22034;-88
2021/08/10 08:57:10;;;;;;;16.82;15.15;;;;;;;28.83;100.00;100466.98;1670946;84;21147;-88
2021/08/10 08:59:43;;;;;;;16.55;14.87;;;;;;;28.85;100.00;100463.52;1683978;82;21172;-87
2021/08/10 09:02:19;;;;;;;19.73;14.80;;;;;;;28.89;100.00;100464.14;1689629;83;21106;-84
2021/08/10 09:04:48;;;;;;;16.10;14.30;;;;;;;28.91;100.00;100457.22;1677449;83;21066;-86
2021/08/10 09:07:17;;;;;;;17.00;14.53;;;;;;;28.94;100.00;100454.03;1659455;84;21099;-90
2021/08/10 09:09:46;;;;;;;20.62;14.25;;;;;;;28.92;100.00;100452.95;1655506;83;21082;-89
2021/08/10 09:12:17;;;;;;;16.25;13.83;;;;;;;28.94;100.00;100443.31;1702985;83;21202;-90
2021/08/10 09:14:53;;;;;;;15.25;13.75;;;;;;;29.01;100.00;100444.51;1662783;84;21125;-89
2021/08/10 09:17:23;;;;;;;15.53;13.93;;;;;;;29.09;100.00;100438.20;1670802;83;21109;-88
2021/08/10 09:19:58;;;;;;;;;;;;;;;29.24;100.00;100434.97;1696977;83;21093;-88
2021/08/10 09:22:29;;;;;;;16.10;13.30;;;;;;;29.40;100.00;100431.20;1675280;83;20187;-88
2021/08/10 09:25:06;;;;;;;16.67;13.72;;;;;;;29.55;100.00;100430.09;1672994;83;21099;-87
2021/08/10 09:27:37;;;;;;;17.73;13.13;;;;;;;29.69;100.00;100431.06;1685678;83;20964;-87
2021/08/10 09:30:15;;;;;;;19.45;13.78;;;;;;;29.85;100.00;100423.50;1672036;84;21167;-87
2021/08/10 09:33:00;;;;;;;15.25;13.60;;;;;;;30.03;100.00;100418.92;1676814;84;21000;-87
2021/08/10 09:35:37;;;;;;;15.38;13.60;;;;;;;30.18;100.00;100412.92;1673301;84;21519;-84
2021/08/10 09:38:08;;;;;;;15.00;12.58;;;;;;;30.29;100.00;100411.95;1656823;83;21288;-88
2021/08/10 09:40:52;;;;;;;22.07;14.63;;;;;;;30.31;100.00;100413.06;1680129;83;21598;-89
2021/08/10 09:43:27;;;;;;;13.08;11.73;;;;;;;30.28;100.00;100406.84;1675512;85;21142;-86
2021/08/10 09:46:18;;;;;;;13.62;12.33;;;;;;;30.33;100.00;100404.20;1683723;83;21097;-87
2021/08/10 09:48:53;;;;;;;;;;;;;;;30.46;100.00;100402.48;1699672;84;21046;-86
2021/08/10 09:51:30;;;;;;;15.58;13.10;;;;;;;30.56;100.00;100403.13;1686461;83;21151;-88
2021/08/10 09:54:05;;;;;;;13.43;12.10;;;;;;;30.56;100.00;100399.10;1659950;83;21050;-87
2021/08/10 09:57:03;;;;;;;14.85;13.38;;;;;;;30.51;100.00;100401.20;1677731;84;21106;-82
2021/08/10 09:59:42;;;;;;;18.90;12.88;;;;;;;30.44;100.00;100403.26;1696822;83;21027;-81
2021/08/10 10:02:23;;;;;;;14.95;12.98;;;;;;;30.33;100.00;100408.23;1710001;83;21573;-81
2021/08/10 10:04:57;;;;;;;15.23;13.62;;;;;;;30.25;100.00;100410.02;1692198;84;21222;-82
2021/08/10 10:07:25;;;;;;;14.38;12.88;;;;;;;30.17;100.00;100409.95;1701814;83;21011;-81
2021/08/10 10:09:58;;;;;;;14.07;12.78;;;;;;;30.14;100.00;100409.11;1649944;83;21085;-81
2021/08/10 10:12:29;;;;;;;15.18;13.62;;;;;;;30.12;100.00;100408.02;1693200;83;21082;-80
2021/08/10 10:15:00;;;;;;;16.02;13.55;;;;;;;30.18;100.00;100407.55;1709834;83;21038;-81
2021/08/10 10:17:32;;;;;;;;;;;;;;;30.25;100.00;100398.77;1712935;83;21003;-80
2021/08/10 10:20:00;;;;;;;14.63;13.20;;;;;;;30.36;100.00;100397.83;1697417;83;20154;-80
2021/08/10 10:22:32;;;;;;;18.57;13.65;;;;;;;30.45;100.00;100394.66;1694594;83;21160;-80
2021/08/10 10:25:01;;;;;;;16.67;13.43;;;;;;;30.47;100.00;100387.99;1654301;85;21052;-82
2021/08/10 10:27:28;;;;;;;15.60;13.90;;;;;;;30.48;100.00;100385.59;1676841;85;21039;-82
2021/08/10 10:29:56;;;;;;;16.12;14.63;;;;;;;30.45;100.00;100390.11;1634287;85;21126;-81
2021/08/10 10:32:25;;;;;;;16.67;14.98;;;;;;;30.42;100.00;100389.27;1654450;85;21534;-80
2021/08/10 10:34:53;;;;;;;16.95;14.70;;;;;;;30.42;100.00;100377.72;1644350;85;21243;-80
2021/08/10 10:37:29;;;;;;;16.50;14.85;;;;;;;30.43;100.00;100374.78;1667131;85;21088;-82
2021/08/10 10:40:03;;;;;;;16.62;15.05;;;;;;;30.51;100.00;100374.89;1662496;84;21014;-81
2021/08/10 10:42:32;;;;;;;16.15;14.47;;;;;;;30.68;100.00;100376.10;1662488;85;21259;-82
2021/08/10 10:44:58;;;;;;;16.62;15.10;;;;;;;30.90;100.00;100370.64;1640326;85;21155;-80
2021/08/10 10:47:33;;;;;;;16.93;14.85;;;;;;;31.10;100.00;100370.01;1650953;85;21107;-82
2021/08/10 10:50:05;;;;;;;17.60;13.85;;;;;;;31.27;100.00;100362.31;1676094;85;21016;-81
2021/08/10 10:52:35;;;;;;;16.23;14.50;;;;;;;31.41;100.00;100362.12;1641215;86;21053;-81
2021/08/10 10:55:05;;;;;;;19.77;15.50;;;;;;;31.54;100.00;100354.63;1674297;84;21199;-80
2021/08/10 10:57:38;;;;;;;17.42;15.50;;;;;;;31.71;100.00;100351.79;1634793;85;21071;-81
2021/08/10 11:00:12;;;;;;;18.40;16.60;;;;;;;31.87;100.00;100345.91;1624449;84;21010;-82
2021/08/10 11:02:40;;;;;;;20.30;18.35;;;;;;;32.00;100.00;100339.21;1692575;84;21190;-81
2021/08/10 11:05:21;;;;;;;21.50;19.32;;;;;;;32.09;100.00;100341.11;1711578;83;21060;-81
2021/08/10 11:07:52;;;;;;;22.42;18.75;;;;;;;32.12;100.00;100333.58;1700860;83;21832;-83
2021/08/10 11:10:40;;;;;;;20.57;18.37;;;;;;;32.05;100.00;100337.34;1694367;83;21466;-80
2021/08/10 11:13:25;;;;;;;18.00;16.15;;;;;;;32.00;100.00;100333.31;1681470;82;21193;-82
2021/08/10 11:15:55;;;;;;;18.27;16.55;;;;;;;32.00;100.00;100327.09;1672337;85;21070;-83
2021/08/10 11:18:25;;;;;;;17.98;16.17;;;;;;;32.01;100.00;100330.06;1670867;84;21215;-81